Time;durP1;ratioP1;P1;durP2;ratioP2;P2;SDS_P1;SDS_P2;PMS_P1;PMS_P2;Temp;Humidity;BMP_temperature;BMP_pressure;BME280_temperature;BME280_humidity;BME280_pressure;Samples;Min_cycle;Max_cycle;Signal;HPM_P1;HPM_P2
2022/01/12 00:01:00;;;;;;;28.93;14.53;;;5.00;99.90;;;;;;4979688;28;20225;-82
2022/01/12 00:03:25;;;;;;;39.67;21.03;;;5.00;99.90;;;;;;4979546;28;20181;-83
2022/01/12 00:05:52;;;;;;;70.23;37.63;;;5.00;99.90;;;;;;4996953;28;20169;-83
2022/01/12 00:08:18;;;;;;;31.70;16.47;;;4.90;99.90;;;;;;4996872;28;20194;-83
2022/01/12 00:10:44;;;;;;;49.93;24.67;;;4.90;99.90;;;;;;4996879;28;20205;-82
2022/01/12 00:13:10;;;;;;;35.33;17.93;;;5.00;99.90;;;;;;4996885;28;20209;-82
2022/01/12 00:15:35;;;;;;;53.00;27.33;;;5.00;99.90;;;;;;4979369;28;20734;-82
2022/01/12 00:18:01;;;;;;;60.53;34.33;;;5.00;99.90;;;;;;4979615;28;20178;-82
2022/01/12 00:20:27;;;;;;;44.17;21.77;;;5.10;99.90;;;;;;4979205;28;20205;-83
2022/01/12 00:22:53;;;;;;;47.03;26.97;;;5.20;99.90;;;;;;4978885;28;20272;-83
2022/01/12 00:33:16;;;;;;;24.50;13.47;;;5.40;99.90;;;;;;4996505;28;20212;-82
2022/01/12 00:35:48;;;;;;;24.67;12.80;;;5.40;99.90;;;;;;4979211;28;20173;-83
2022/01/12 00:38:15;;;;;;;30.20;18.53;;;5.50;99.90;;;;;;4978826;28;20178;-83
2022/01/12 00:40:43;;;;;;;39.37;22.73;;;5.50;99.90;;;;;;4979093;28;20181;-83
2022/01/12 00:43:10;;;;;;;27.57;13.20;;;5.60;99.90;;;;;;4978801;28;20182;-83
2022/01/12 00:45:38;;;;;;;24.23;12.30;;;5.60;99.90;;;;;;4979125;28;20165;-82
2022/01/12 00:48:04;;;;;;;23.20;12.40;;;5.70;99.90;;;;;;4978688;28;20208;-82
2022/01/12 00:50:31;;;;;;;25.03;14.30;;;5.50;99.90;;;;;;4979060;28;20190;-82
2022/01/12 00:52:57;;;;;;;24.63;12.27;;;5.50;99.90;;;;;;4978257;28;20245;-83
2022/01/12 00:55:22;;;;;;;29.30;13.30;;;5.40;99.90;;;;;;4978964;28;20251;-82
2022/01/12 00:57:49;;;;;;;22.83;11.87;;;5.40;99.90;;;;;;4977904;28;20219;-82
2022/01/12 01:00:15;;;;;;;27.90;16.27;;;5.40;99.90;;;;;;4995677;28;20212;-82
2022/01/12 01:02:41;;;;;;;29.03;12.47;;;5.50;99.90;;;;;;4978419;28;20201;-82
2022/01/12 01:05:07;;;;;;;29.37;15.00;;;5.40;99.90;;;;;;4978754;28;20174;-83
2022/01/12 01:07:33;;;;;;;26.17;12.30;;;5.40;99.90;;;;;;4978233;28;20617;-83
2022/01/12 01:10:07;;;;;;;24.00;12.27;;;5.40;99.90;;;;;;4978553;28;20273;-83
2022/01/12 01:12:35;;;;;;;26.67;13.20;;;5.30;99.90;;;;;;4978180;28;20216;-83
2022/01/12 01:15:06;;;;;;;26.07;13.77;;;5.40;99.90;;;;;;4978449;28;20240;-82
2022/01/12 01:25:42;;;;;;;27.77;13.30;;;5.50;99.90;;;;;;4996003;28;20170;-83
2022/01/12 01:28:09;;;;;;;26.50;13.60;;;5.50;99.90;;;;;;4978051;28;20181;-83
2022/01/12 01:30:37;;;;;;;31.67;16.03;;;5.60;99.90;;;;;;4978134;28;20268;-83
2022/01/12 01:33:08;;;;;;;23.63;13.53;;;5.70;99.90;;;;;;4995342;28;20212;-82
2022/01/12 01:35:36;;;;;;;28.23;13.83;;;5.50;99.90;;;;;;4977847;28;20173;-82
2022/01/12 01:38:03;;;;;;;27.90;12.33;;;5.40;99.90;;;;;;4977889;28;20697;-83
2022/01/12 01:40:31;;;;;;;28.90;13.47;;;5.40;99.90;;;;;;4978131;28;20184;-83
2022/01/12 01:53:45;;;;;;;24.20;13.33;;;5.40;99.90;;;;;;4994899;28;20220;-83
2022/01/12 01:56:10;;;;;;;25.03;13.43;;;5.50;99.90;;;;;;4995076;28;20174;-83
2022/01/12 01:58:36;;;;;;;53.13;27.07;;;5.60;99.90;;;;;;4977727;28;20653;-83
2022/01/12 02:01:03;;;;;;;28.10;14.43;;;5.60;99.90;;;;;;4977748;28;20174;-82
2022/01/12 02:03:30;;;;;;;28.17;13.93;;;5.50;99.90;;;;;;4977448;28;20174;-83
2022/01/12 02:05:59;;;;;;;29.70;14.63;;;5.50;99.90;;;;;;4977405;28;20197;-83
2022/01/12 02:08:25;;;;;;;34.53;18.90;;;5.60;99.90;;;;;;4977285;28;20682;-83
2022/01/12 02:10:58;;;;;;;37.97;19.93;;;5.60;99.90;;;;;;4977245;28;20272;-83
2022/01/12 02:13:25;;;;;;;27.43;13.57;;;5.50;99.90;;;;;;4977034;28;20209;-83
2022/01/12 02:15:53;;;;;;;37.20;18.43;;;5.50;99.90;;;;;;4977308;28;20181;-82
2022/01/12 02:18:35;;;;;;;27.53;13.70;;;5.50;99.90;;;;;;4977338;28;20618;-83
2022/01/12 02:40:26;;;;;;;28.70;13.40;;;5.70;99.90;;;;;;4994196;28;20174;-83
2022/01/12 02:51:08;;;;;;;28.10;13.63;;;5.60;99.90;;;;;;4994409;28;20197;-82
2022/01/12 02:53:42;;;;;;;23.87;12.67;;;5.40;99.90;;;;;;4976772;28;20211;-83
2022/01/12 02:56:13;;;;;;;22.97;12.00;;;5.40;99.90;;;;;;4976508;28;20189;-82
2022/01/12 02:58:40;;;;;;;24.40;11.73;;;5.40;99.90;;;;;;4976134;28;20281;-83
2022/01/12 03:03:37;;;;;;;24.13;12.60;;;5.40;99.90;;;;;;4993585;28;20193;-83
2022/01/12 03:06:06;;;;;;;25.80;12.80;;;5.50;99.90;;;;;;4968425;28;20270;-83
2022/01/12 03:08:38;;;;;;;25.00;12.87;;;5.50;99.90;;;;;;4956967;28;20201;-83
2022/01/12 03:11:07;;;;;;;24.37;12.43;;;5.60;99.90;;;;;;4956995;28;20648;-83
2022/01/12 03:13:34;;;;;;;28.80;13.70;;;5.60;99.90;;;;;;4956875;28;20222;-83
2022/01/12 03:16:02;;;;;;;23.97;12.40;;;5.60;99.90;;;;;;4957109;28;20832;-83
2022/01/12 03:18:28;;;;;;;25.57;13.00;;;5.70;99.90;;;;;;4973928;28;20175;-83
2022/01/12 03:20:54;;;;;;;27.20;13.63;;;5.60;99.90;;;;;;4956530;28;20675;-83
2022/01/12 03:23:20;;;;;;;22.60;11.97;;;5.70;99.90;;;;;;4973143;28;20557;-83
2022/01/12 03:25:46;;;;;;;26.43;13.23;;;5.60;99.90;;;;;;4956648;28;20221;-83
2022/01/12 03:28:12;;;;;;;23.13;12.07;;;5.30;99.90;;;;;;4957069;28;20186;-83
2022/01/12 03:30:48;;;;;;;25.50;13.03;;;5.20;99.90;;;;;;4956952;28;20186;-83
2022/01/12 03:33:32;;;;;;;24.77;12.50;;;5.10;99.90;;;;;;4956576;28;20221;-83
2022/01/12 03:38:41;;;;;;;23.83;12.83;;;4.90;99.90;;;;;;4974310;28;20362;-83
2022/01/12 03:41:07;;;;;;;28.20;13.93;;;5.00;99.90;;;;;;4956460;28;20249;-82
2022/01/12 03:43:33;;;;;;;28.27;14.73;;;5.10;99.90;;;;;;4956927;28;20674;-83
2022/01/12 03:45:58;;;;;;;29.97;14.47;;;5.00;99.90;;;;;;4956281;28;20187;-82
2022/01/12 03:48:24;;;;;;;27.07;14.23;;;4.90;99.90;;;;;;4956494;28;20650;-82
2022/01/12 03:50:49;;;;;;;33.50;15.53;;;4.90;99.90;;;;;;4956439;28;20178;-82
2022/01/12 03:53:16;;;;;;;27.07;15.13;;;4.80;99.90;;;;;;4956390;28;20225;-82
2022/01/12 03:55:43;;;;;;;32.30;16.47;;;4.70;99.90;;;;;;4972590;28;20230;-82
2022/01/12 03:58:12;;;;;;;29.87;15.30;;;4.60;99.90;;;;;;4956654;28;20217;-82
2022/01/12 04:00:38;;;;;;;36.77;16.17;;;4.50;99.90;;;;;;4973385;28;20194;-83
2022/01/12 04:03:06;;;;;;;37.23;16.80;;;4.50;99.90;;;;;;4956462;28;20221;-82
2022/01/12 04:08:19;;;;;;;32.07;15.77;;;4.60;99.90;;;;;;4973792;28;20246;-82
2022/01/12 04:10:55;;;;;;;39.43;16.63;;;4.70;99.90;;;;;;4956226;28;20274;-83
2022/01/12 04:13:23;;;;;;;32.27;15.83;;;4.70;99.90;;;;;;4956559;28;20206;-82
2022/01/12 04:15:53;;;;;;;32.93;17.17;;;4.70;99.90;;;;;;4956034;28;20243;-82
2022/01/12 04:18:18;;;;;;;35.00;17.03;;;4.80;99.90;;;;;;4956234;28;20182;-82
2022/01/12 04:20:46;;;;;;;35.17;17.27;;;4.70;99.90;;;;;;4956561;28;20186;-82
2022/01/12 04:23:17;;;;;;;34.70;16.97;;;4.80;99.90;;;;;;4972328;28;20614;-82
2022/01/12 04:25:49;;;;;;;34.07;16.67;;;4.70;99.90;;;;;;4956242;28;20561;-83
2022/01/12 04:28:16;;;;;;;34.83;16.53;;;4.70;99.90;;;;;;4973528;28;20171;-82
2022/01/12 04:30:43;;;;;;;36.43;16.67;;;4.60;99.90;;;;;;4955930;28;20210;-82
2022/01/12 04:33:10;;;;;;;32.30;16.33;;;4.70;99.90;;;;;;4957082;28;20262;-83
2022/01/12 04:35:40;;;;;;;31.00;16.90;;;4.70;99.90;;;;;;4959407;28;20178;-83
2022/01/12 04:38:06;;;;;;;39.30;18.57;;;4.70;99.90;;;;;;4959189;28;20189;-82
2022/01/12 04:40:32;;;;;;;37.83;18.00;;;4.60;99.90;;;;;;4959777;28;20194;-83
2022/01/12 04:42:59;;;;;;;34.93;17.90;;;4.50;99.90;;;;;;4959417;28;20182;-82
2022/01/12 04:50:21;;;;;;;32.97;17.80;;;4.60;99.90;;;;;;4976831;28;20277;-83
2022/01/12 04:52:47;;;;;;;36.80;17.63;;;4.60;99.90;;;;;;4959263;28;20214;-83
2022/01/12 04:55:13;;;;;;;40.37;17.23;;;4.60;99.90;;;;;;4976718;28;20256;-83
2022/01/12 04:57:39;;;;;;;38.37;18.03;;;4.50;99.90;;;;;;4975380;28;20225;-83
2022/01/12 05:00:14;;;;;;;37.00;17.57;;;4.50;99.90;;;;;;4959021;28;20274;-83
2022/01/12 05:08:19;;;;;;;42.30;19.20;;;4.70;99.90;;;;;;4976466;28;20201;-83
2022/01/12 05:13:31;;;;;;;40.00;19.87;;;4.80;99.90;;;;;;4976389;28;20217;-83
2022/01/12 05:15:58;;;;;;;39.63;18.17;;;4.80;99.90;;;;;;4976270;28;20179;-83
2022/01/12 05:18:24;;;;;;;38.40;18.53;;;4.90;99.90;;;;;;4958641;28;20193;-83
2022/01/12 05:20:50;;;;;;;37.83;19.50;;;4.90;99.90;;;;;;4976413;28;20660;-83
2022/01/12 05:23:15;;;;;;;36.67;18.17;;;5.00;99.90;;;;;;4958835;28;20186;-83
2022/01/12 05:25:41;;;;;;;38.90;18.93;;;4.90;99.90;;;;;;4959328;28;20175;-83
2022/01/12 05:28:07;;;;;;;37.60;18.40;;;4.90;99.90;;;;;;4958490;28;20182;-83
2022/01/12 05:30:33;;;;;;;45.03;20.93;;;5.00;99.90;;;;;;4976251;28;20286;-83
2022/01/12 05:33:00;;;;;;;41.90;19.70;;;5.00;99.90;;;;;;4958540;28;20222;-83
2022/01/12 05:35:31;;;;;;;46.47;20.20;;;4.90;99.90;;;;;;4958956;28;20175;-83
2022/01/12 05:37:58;;;;;;;41.83;19.20;;;5.00;99.90;;;;;;4974718;28;20183;-82
2022/01/12 05:40:24;;;;;;;44.30;20.23;;;5.10;99.90;;;;;;4958718;28;20186;-83
2022/01/12 05:42:52;;;;;;;44.53;20.37;;;5.00;99.90;;;;;;4958083;28;20298;-83
2022/01/12 05:45:19;;;;;;;44.73;20.63;;;5.10;99.90;;;;;;4958352;28;20578;-83
2022/01/12 05:50:16;;;;;;;43.30;18.70;;;5.20;99.90;;;;;;4976027;28;20178;-83
2022/01/12 05:52:41;;;;;;;44.10;21.03;;;5.30;99.90;;;;;;4975344;28;20206;-83
2022/01/12 05:55:08;;;;;;;40.80;19.97;;;5.10;99.90;;;;;;4958144;28;20194;-83
2022/01/12 05:57:35;;;;;;;42.20;21.10;;;5.20;99.90;;;;;;4958111;28;20318;-83
2022/01/12 06:00:03;;;;;;;44.20;20.70;;;5.20;99.90;;;;;;4958020;28;20171;-83
2022/01/12 06:02:29;;;;;;;47.00;21.93;;;5.30;99.90;;;;;;4975506;28;20178;-83
2022/01/12 06:04:55;;;;;;;47.23;21.10;;;5.20;99.90;;;;;;4958068;28;20675;-83
2022/01/12 06:07:21;;;;;;;44.13;20.27;;;5.20;99.90;;;;;;4958078;28;20186;-83
2022/01/12 06:09:46;;;;;;;44.60;20.27;;;5.20;99.90;;;;;;4957789;28;20589;-83
2022/01/12 06:12:12;;;;;;;50.07;20.93;;;5.20;99.90;;;;;;4957427;28;20242;-83
2022/01/12 07:39:33;;;;;;;62.97;25.70;;;5.10;99.90;;;;;;5415191;23;20305;-93
2022/01/12 11:52:13;;;;;;;80.63;27.67;;;7.40;99.90;;;;;;5005553;28;20180;-96
2022/01/12 11:54:39;;;;;;;79.93;27.80;;;7.60;99.90;;;;;;4936748;29;20895;-88
2022/01/12 11:57:07;;;;;;;76.53;27.50;;;7.70;99.90;;;;;;4938925;29;20209;-88
2022/01/12 11:59:51;;;;;;;70.23;27.33;;;7.60;99.90;;;;;;4922584;29;20192;-88
2022/01/12 12:02:17;;;;;;;70.87;27.77;;;7.60;99.90;;;;;;4938310;29;20597;-88
2022/01/12 14:04:21;;;;;;;59.07;23.50;;;7.80;99.90;;;;;;5190075;23;20244;-95
2022/01/12 14:06:52;;;;;;;57.40;22.60;;;8.00;99.90;;;;;;4974505;28;20190;-87
2022/01/12 14:09:28;;;;;;;58.43;22.50;;;7.90;99.90;;;;;;4974202;28;20198;-88
2022/01/12 14:11:55;;;;;;;58.47;22.13;;;7.70;99.90;;;;;;4977951;28;20233;-87
2022/01/12 14:14:21;;;;;;;56.93;23.63;;;7.70;99.90;;;;;;4995172;28;20224;-88
2022/01/12 14:16:47;;;;;;;63.03;23.23;;;7.60;99.90;;;;;;4978060;28;20586;-87
2022/01/12 14:19:13;;;;;;;55.90;21.37;;;7.60;99.90;;;;;;4977568;28;20241;-87
2022/01/12 14:21:41;;;;;;;60.83;22.97;;;7.60;99.90;;;;;;4978033;28;20210;-87
2022/01/12 14:24:09;;;;;;;58.70;22.83;;;7.70;99.90;;;;;;4977378;28;20188;-87
2022/01/12 14:26:42;;;;;;;64.20;23.97;;;7.90;99.90;;;;;;4977688;28;20228;-88
2022/01/12 14:29:11;;;;;;;77.17;25.87;;;8.00;99.90;;;;;;4977701;28;20223;-87
2022/01/12 14:31:38;;;;;;;68.83;23.57;;;8.00;99.90;;;;;;4994949;28;20185;-88
2022/01/12 14:34:04;;;;;;;59.60;22.27;;;8.00;99.90;;;;;;4977244;28;20304;-87
2022/01/12 14:36:30;;;;;;;63.07;22.47;;;7.90;99.90;;;;;;4977614;28;20187;-85
2022/01/12 14:38:55;;;;;;;63.13;21.63;;;7.70;99.90;;;;;;4977058;28;20188;-87
2022/01/12 14:41:21;;;;;;;67.73;22.83;;;7.50;99.90;;;;;;4977795;28;20213;-87
2022/01/12 14:43:49;;;;;;;76.17;22.27;;;7.50;99.90;;;;;;4994899;28;20539;-88
2022/01/12 14:46:15;;;;;;;69.37;22.23;;;7.50;99.90;;;;;;4994614;28;20235;-86
2022/01/12 14:48:41;;;;;;;61.57;21.53;;;7.40;99.90;;;;;;4977196;28;20170;-86
2022/01/12 14:51:06;;;;;;;65.40;20.90;;;7.40;99.90;;;;;;4977254;28;20174;-90
2022/01/12 14:53:32;;;;;;;88.23;22.67;;;7.50;99.90;;;;;;4976862;28;20215;-87
2022/01/12 14:56:01;;;;;;;70.07;21.83;;;7.70;99.90;;;;;;4977108;28;20232;-86
2022/01/12 14:58:28;;;;;;;68.90;23.47;;;7.90;99.90;;;;;;4977495;28;20184;-87
2022/01/12 15:00:55;;;;;;;76.87;22.33;;;8.00;99.90;;;;;;4976890;28;20169;-88
2022/01/12 15:03:26;;;;;;;73.93;20.67;;;7.90;99.90;;;;;;4976999;28;20205;-88
2022/01/12 15:05:52;;;;;;;66.50;21.70;;;7.90;99.90;;;;;;4994317;28;20171;-87
2022/01/12 15:08:21;;;;;;;62.97;20.23;;;7.80;99.90;;;;;;4993878;28;20223;-88
2022/01/12 15:10:49;;;;;;;49.37;19.43;;;7.70;99.90;;;;;;4976751;28;20181;-87
2022/01/12 15:13:24;;;;;;;52.50;19.07;;;7.50;99.90;;;;;;4976885;28;20279;-88
2022/01/12 15:15:52;;;;;;;47.37;19.27;;;7.50;99.90;;;;;;4994341;28;20210;-88
2022/01/12 15:18:19;;;;;;;39.87;17.77;;;7.40;99.90;;;;;;4993667;28;20176;-87
2022/01/12 15:20:45;;;;;;;44.97;17.70;;;7.30;99.90;;;;;;4976711;28;20692;-87
2022/01/12 15:23:11;;;;;;;54.67;19.17;;;7.40;99.90;;;;;;4976549;28;20184;-87
2022/01/12 15:25:36;;;;;;;61.37;20.67;;;7.50;99.90;;;;;;4976725;28;20184;-87
2022/01/12 15:28:06;;;;;;;52.20;18.43;;;7.70;99.90;;;;;;4994263;28;20247;-90
2022/01/12 15:30:33;;;;;;;54.80;19.93;;;7.80;99.90;;;;;;4976652;28;20191;-86
2022/01/12 15:32:58;;;;;;;56.47;21.17;;;7.80;99.90;;;;;;4994427;28;20229;-87
2022/01/12 15:35:24;;;;;;;52.03;18.57;;;7.40;99.90;;;;;;4976824;28;20183;-85
2022/01/12 15:37:50;;;;;;;50.80;19.13;;;7.20;99.90;;;;;;4976617;28;20183;-87
2022/01/12 15:40:16;;;;;;;53.43;19.03;;;7.20;99.90;;;;;;4976910;28;20179;-87
2022/01/12 15:42:42;;;;;;;53.30;20.47;;;7.20;99.90;;;;;;4976971;28;20192;-86
2022/01/12 15:45:08;;;;;;;50.87;18.63;;;7.30;99.90;;;;;;4977059;28;20265;-87
2022/01/12 15:47:34;;;;;;;50.23;19.70;;;7.20;99.90;;;;;;4976801;28;20628;-87
2022/01/12 15:49:59;;;;;;;53.10;20.20;;;7.30;99.90;;;;;;4994446;28;20257;-88
2022/01/12 15:52:25;;;;;;;53.13;18.97;;;7.30;99.90;;;;;;4976503;28;20177;-88
2022/01/12 15:54:50;;;;;;;50.57;18.93;;;7.20;99.90;;;;;;4976975;28;20182;-86
2022/01/12 15:57:18;;;;;;;51.93;18.80;;;7.20;99.90;;;;;;4977400;28;20180;-86
2022/01/12 15:59:44;;;;;;;51.50;18.70;;;7.30;99.90;;;;;;4976998;28;20196;-86
2022/01/12 16:02:12;;;;;;;48.07;19.17;;;7.50;99.90;;;;;;4976757;28;20205;-86
2022/01/12 16:04:38;;;;;;;46.87;19.63;;;7.50;99.90;;;;;;4978866;28;20223;-87
2022/01/12 16:07:04;;;;;;;52.80;18.07;;;7.40;99.90;;;;;;4982357;28;20192;-88
2022/01/12 16:09:30;;;;;;;42.30;18.40;;;7.40;99.90;;;;;;4982846;28;20185;-86
2022/01/12 16:11:57;;;;;;;47.13;17.77;;;7.50;99.90;;;;;;4983898;28;20200;-87
2022/01/12 16:14:23;;;;;;;46.43;18.33;;;7.60;99.90;;;;;;4979075;28;20217;-88
2022/01/12 16:16:49;;;;;;;46.43;16.63;;;7.60;99.90;;;;;;4976140;28;20250;-87
2022/01/12 16:19:14;;;;;;;46.00;17.03;;;7.50;99.90;;;;;;4993751;28;20181;-87
2022/01/12 16:21:43;;;;;;;46.57;17.80;;;7.30;99.90;;;;;;4975902;28;20171;-89
2022/01/12 16:24:10;;;;;;;41.10;17.03;;;7.40;99.90;;;;;;4976408;28;20234;-87
2022/01/12 16:26:36;;;;;;;45.30;16.93;;;7.30;99.90;;;;;;4975989;28;20242;-89
2022/01/12 16:29:04;;;;;;;43.40;18.23;;;7.10;99.90;;;;;;4977443;28;20265;-90
2022/01/12 16:31:30;;;;;;;40.40;16.67;;;7.10;99.90;;;;;;4979499;28;20633;-87
2022/01/12 16:33:58;;;;;;;49.47;18.00;;;7.00;99.90;;;;;;4979891;28;20215;-85
2022/01/12 16:36:28;;;;;;;40.17;16.70;;;7.10;99.90;;;;;;4979426;28;20311;-84
2022/01/12 16:38:55;;;;;;;35.53;15.60;;;7.30;99.90;;;;;;4996925;28;20179;-87
2022/01/12 16:41:21;;;;;;;49.10;17.77;;;7.10;99.90;;;;;;4997026;28;20229;-87
2022/01/12 16:43:47;;;;;;;42.90;16.60;;;7.10;99.90;;;;;;4979396;28;20182;-85
2022/01/12 16:46:15;;;;;;;38.83;14.80;;;7.00;99.90;;;;;;4996781;28;20169;-87
2022/01/12 16:48:42;;;;;;;47.73;17.57;;;7.00;99.90;;;;;;4979366;28;20271;-87
2022/01/12 16:51:08;;;;;;;42.60;16.57;;;7.00;99.90;;;;;;4979498;28;20178;-88
2022/01/12 16:53:37;;;;;;;41.57;16.87;;;7.10;99.90;;;;;;4979841;28;20688;-85
2022/01/12 16:56:06;;;;;;;42.30;17.03;;;7.20;99.90;;;;;;4996654;28;20175;-87
2022/01/12 16:58:32;;;;;;;47.70;17.33;;;7.10;99.90;;;;;;4978599;28;20198;-87
2022/01/12 17:00:57;;;;;;;41.77;16.53;;;7.00;99.90;;;;;;4979028;28;20190;-86
2022/01/12 17:03:23;;;;;;;40.93;15.63;;;7.00;99.90;;;;;;4978287;28;20212;-86
2022/01/12 17:05:48;;;;;;;43.33;15.97;;;7.00;99.90;;;;;;4979106;28;20180;-85
2022/01/12 17:08:14;;;;;;;44.10;16.47;;;7.10;99.90;;;;;;4978836;28;20200;-89
2022/01/12 17:10:40;;;;;;;33.77;16.17;;;7.10;99.90;;;;;;4979251;28;20676;-89
2022/01/12 17:13:06;;;;;;;40.17;15.43;;;7.00;99.90;;;;;;4978911;28;20212;-89
2022/01/12 17:15:44;;;;;;;34.17;15.13;;;7.00;99.90;;;;;;4978724;28;20314;-86
2022/01/12 17:18:39;;;;;;;30.17;13.67;;;7.10;99.90;;;;;;4978668;28;20181;-88
2022/01/12 17:21:07;;;;;;;33.07;14.33;;;7.10;99.90;;;;;;4978456;28;20215;-87
2022/01/12 17:23:44;;;;;;;30.70;13.83;;;7.10;99.90;;;;;;4996098;28;20168;-86
2022/01/12 17:26:10;;;;;;;33.00;13.53;;;6.90;99.90;;;;;;4978590;28;20174;-87
2022/01/12 17:28:36;;;;;;;33.77;14.07;;;6.90;99.90;;;;;;4978113;28;20250;-89
2022/01/12 17:31:01;;;;;;;31.27;13.40;;;7.00;99.90;;;;;;4977771;28;20202;-87
2022/01/12 17:33:27;;;;;;;33.80;13.87;;;6.90;99.90;;;;;;4977825;28;20921;-88
2022/01/12 17:35:53;;;;;;;34.10;13.03;;;6.90;99.90;;;;;;4978243;28;20187;-86
2022/01/12 17:38:19;;;;;;;34.63;13.43;;;6.80;99.90;;;;;;4978263;28;20194;-85
2022/01/12 17:40:48;;;;;;;31.93;12.90;;;7.00;99.90;;;;;;4971739;28;20191;-87
2022/01/12 17:43:21;;;;;;;35.40;13.40;;;7.10;99.90;;;;;;4982160;28;20210;-87
2022/01/12 17:45:48;;;;;;;31.03;14.03;;;7.10;99.90;;;;;;4960007;28;20719;-87
2022/01/12 17:48:26;;;;;;;31.03;13.57;;;6.90;99.90;;;;;;4957478;28;20188;-86
2022/01/12 17:50:54;;;;;;;33.07;13.20;;;6.90;99.90;;;;;;4977417;28;20172;-86
2022/01/12 17:53:19;;;;;;;36.00;15.90;;;6.80;99.90;;;;;;4971272;28;20211;-86
2022/01/12 17:55:45;;;;;;;39.00;18.63;;;6.80;99.90;;;;;;4971501;28;20182;-89
2022/01/12 17:58:11;;;;;;;34.43;14.07;;;7.10;99.90;;;;;;4958402;28;20186;-89
2022/01/12 18:00:39;;;;;;;33.20;13.97;;;7.10;99.90;;;;;;4974072;28;20166;-88
2022/01/12 18:03:05;;;;;;;28.33;12.67;;;7.20;99.90;;;;;;4957986;28;20230;-88
2022/01/12 18:05:31;;;;;;;31.00;13.17;;;7.10;99.90;;;;;;4958530;28;20222;-89
2022/01/12 18:07:56;;;;;;;30.90;14.07;;;6.90;99.90;;;;;;4975781;28;20200;-85
2022/01/12 18:10:22;;;;;;;36.73;14.13;;;6.80;99.90;;;;;;4958226;28;20394;-87
2022/01/12 18:12:48;;;;;;;45.13;19.00;;;6.90;99.90;;;;;;4958155;28;20274;-88
2022/01/12 18:15:14;;;;;;;56.93;29.27;;;7.00;99.90;;;;;;4958474;28;20271;-88
2022/01/12 18:17:42;;;;;;;37.77;18.33;;;7.10;99.90;;;;;;4958167;28;20621;-88
2022/01/12 18:20:09;;;;;;;43.47;18.20;;;7.20;99.90;;;;;;4975770;28;20179;-89
2022/01/12 18:22:34;;;;;;;45.43;19.70;;;7.10;99.90;;;;;;4958199;28;20179;-88
2022/01/12 18:25:01;;;;;;;38.00;15.83;;;6.90;99.90;;;;;;4958256;28;20179;-87
2022/01/12 18:27:29;;;;;;;35.70;15.17;;;6.80;99.90;;;;;;4975846;28;20639;-87
2022/01/12 18:29:55;;;;;;;45.03;19.70;;;6.70;99.90;;;;;;4974325;28;20185;-87
2022/01/12 18:32:22;;;;;;;37.40;16.70;;;6.60;99.90;;;;;;4957790;28;20526;-88
2022/01/12 18:34:51;;;;;;;36.87;15.60;;;6.70;99.90;;;;;;4958003;28;20262;-88
2022/01/12 18:37:18;;;;;;;37.30;15.37;;;6.90;99.90;;;;;;4958078;28;20174;-88
2022/01/12 18:39:44;;;;;;;34.27;14.13;;;6.80;99.90;;;;;;4975183;28;20258;-88
2022/01/12 18:42:10;;;;;;;40.17;16.20;;;7.00;99.90;;;;;;4958197;28;20174;-88
2022/01/12 18:44:36;;;;;;;32.23;13.70;;;7.30;99.90;;;;;;4957826;28;20179;-88
2022/01/12 18:47:03;;;;;;;32.33;13.67;;;7.20;99.90;;;;;;4957658;28;20180;-88
2022/01/12 18:49:28;;;;;;;35.00;14.47;;;6.90;99.90;;;;;;4957856;28;20183;-88
2022/01/12 18:51:54;;;;;;;38.13;15.03;;;7.10;99.90;;;;;;4957734;28;20238;-87
2022/01/12 18:54:21;;;;;;;35.33;15.63;;;7.20;99.90;;;;;;4957993;28;20796;-88
2022/01/12 18:56:48;;;;;;;31.23;13.90;;;7.10;99.90;;;;;;4957808;28;20188;-84
2022/01/12 18:59:14;;;;;;;33.77;14.00;;;7.00;99.90;;;;;;4975184;28;20266;-86
2022/01/12 19:01:41;;;;;;;32.43;13.47;;;6.70;99.90;;;;;;4957482;28;20662;-87
2022/01/12 19:04:07;;;;;;;37.10;14.13;;;6.60;99.90;;;;;;4957492;28;20283;-86
2022/01/12 19:06:37;;;;;;;27.47;12.83;;;6.70;99.90;;;;;;4957495;28;20639;-88
2022/01/12 19:09:04;;;;;;;33.77;14.80;;;6.80;99.90;;;;;;4957269;28;20196;-88
2022/01/12 19:11:31;;;;;;;37.20;15.50;;;6.90;99.90;;;;;;4957383;28;20262;-85
2022/01/12 19:14:02;;;;;;;37.40;16.37;;;6.90;99.90;;;;;;4957248;28;20222;-89
2022/01/12 19:16:28;;;;;;;35.70;15.13;;;6.70;99.90;;;;;;4957666;28;20234;-88
2022/01/12 19:18:54;;;;;;;34.67;14.80;;;6.70;99.90;;;;;;4957602;28;20249;-87
2022/01/12 19:21:20;;;;;;;31.87;13.20;;;6.80;99.90;;;;;;4957439;28;20203;-86
2022/01/12 19:23:47;;;;;;;34.87;14.83;;;6.80;99.90;;;;;;4957529;28;20185;-89
2022/01/12 19:26:13;;;;;;;37.07;14.97;;;6.80;99.90;;;;;;4957184;28;20312;-87
2022/01/12 19:28:39;;;;;;;34.23;13.90;;;6.70;99.90;;;;;;4957310;28;20662;-89
2022/01/12 19:31:05;;;;;;;37.77;15.40;;;6.80;99.90;;;;;;4957274;28;20270;-88
2022/01/12 19:33:30;;;;;;;36.83;15.53;;;6.90;99.90;;;;;;4957399;28;20687;-86
2022/01/12 19:35:57;;;;;;;36.53;15.83;;;6.90;99.90;;;;;;4957112;28;20209;-87
2022/01/12 19:38:24;;;;;;;43.60;21.57;;;7.00;99.90;;;;;;4957299;28;20661;-88
2022/01/12 19:40:50;;;;;;;34.40;15.80;;;7.20;99.90;;;;;;4956952;28;20242;-86
2022/01/12 19:43:16;;;;;;;34.27;14.63;;;7.20;99.90;;;;;;4957145;28;20179;-87
2022/01/12 19:45:41;;;;;;;37.10;14.23;;;7.10;99.90;;;;;;4956722;28;20186;-86
2022/01/12 19:48:07;;;;;;;35.40;15.30;;;7.00;99.90;;;;;;4957338;28;20183;-88
2022/01/12 19:50:33;;;;;;;35.90;14.50;;;6.80;99.90;;;;;;4957355;28;20215;-88
2022/01/12 19:53:28;;;;;;;40.07;15.13;;;6.70;99.90;;;;;;4957103;28;20227;-88
2022/01/12 19:56:02;;;;;;;35.13;16.53;;;7.00;99.90;;;;;;4973275;28;20182;-88
2022/01/12 19:58:47;;;;;;;37.97;16.63;;;7.10;99.90;;;;;;4957065;28;20193;-88
2022/01/12 20:01:21;;;;;;;36.60;15.27;;;7.10;99.90;;;;;;4953702;28;20241;-87
2022/01/12 20:03:49;;;;;;;46.70;19.27;;;7.10;99.90;;;;;;4975137;28;20186;-88
2022/01/12 20:06:19;;;;;;;45.67;17.50;;;7.00;99.90;;;;;;4977875;28;20167;-89
2022/01/12 20:08:51;;;;;;;38.90;16.10;;;7.00;99.90;;;;;;4978268;28;20617;-88
2022/01/12 20:11:19;;;;;;;38.73;15.90;;;7.00;99.90;;;;;;4977586;28;20207;-88
2022/01/12 20:13:45;;;;;;;36.83;15.70;;;7.20;99.90;;;;;;4976689;28;20211;-88
2022/01/12 20:16:17;;;;;;;40.23;16.47;;;7.20;99.90;;;;;;4960524;28;20256;-87
2022/01/12 20:21:58;;;;;;;38.23;15.60;;;7.10;99.90;;;;;;4977851;28;20188;-87
2022/01/12 20:24:38;;;;;;;135.23;41.37;;;7.20;99.90;;;;;;4976634;28;20210;-87
2022/01/12 20:27:05;;;;;;;89.60;29.23;;;7.30;99.90;;;;;;4977344;28;20217;-88
2022/01/12 20:29:34;;;;;;;209.00;51.77;;;7.00;99.90;;;;;;4976427;28;20210;-86
2022/01/12 20:32:02;;;;;;;556.57;160.93;;;7.00;99.90;;;;;;4960067;28;20624;-87
2022/01/12 20:34:29;;;;;;;101.33;42.27;;;7.20;99.90;;;;;;4960519;28;20301;-87
2022/01/12 20:36:54;;;;;;;47.40;23.00;;;7.40;99.90;;;;;;4977218;28;20177;-86
2022/01/12 20:39:20;;;;;;;41.60;17.93;;;7.20;99.90;;;;;;4976506;28;20182;-88
2022/01/12 20:41:46;;;;;;;43.67;17.43;;;7.10;99.90;;;;;;4960065;28;20274;-87
2022/01/12 20:44:12;;;;;;;41.23;17.57;;;7.10;99.90;;;;;;4960280;28;20203;-87
2022/01/12 20:46:39;;;;;;;39.57;15.90;;;6.90;99.90;;;;;;4976350;28;20175;-87
2022/01/12 20:49:05;;;;;;;41.27;17.83;;;7.10;99.90;;;;;;4959926;28;20266;-88
2022/01/12 20:51:32;;;;;;;39.27;16.30;;;7.10;99.90;;;;;;4960245;28;20658;-87
2022/01/12 20:53:57;;;;;;;42.77;16.30;;;7.00;99.90;;;;;;4959870;28;20671;-87
2022/01/12 20:56:24;;;;;;;43.70;15.97;;;7.00;99.90;;;;;;4959711;28;20175;-87
2022/01/12 20:58:52;;;;;;;41.70;18.03;;;7.00;99.90;;;;;;4959941;28;20223;-87
2022/01/12 21:01:18;;;;;;;38.23;15.70;;;7.10;99.90;;;;;;4979566;28;20184;-87
2022/01/12 21:03:44;;;;;;;38.60;15.03;;;7.10;99.90;;;;;;4978453;28;20212;-87
2022/01/12 21:06:10;;;;;;;37.47;15.53;;;7.00;99.90;;;;;;4975989;28;20185;-87
2022/01/12 21:08:37;;;;;;;37.67;15.37;;;7.00;99.90;;;;;;4978328;28;20692;-87
2022/01/12 21:11:04;;;;;;;41.13;16.10;;;7.10;99.90;;;;;;4971613;28;20262;-85
2022/01/12 21:13:31;;;;;;;33.83;14.83;;;7.40;99.90;;;;;;4976484;28;20202;-86
2022/01/12 21:15:57;;;;;;;39.80;16.77;;;7.30;99.90;;;;;;4969942;28;20191;-85
2022/01/12 21:18:23;;;;;;;36.60;15.73;;;7.00;99.90;;;;;;4975743;28;20178;-87
2022/01/12 21:20:49;;;;;;;36.57;15.50;;;6.80;99.90;;;;;;4978199;28;20183;-86
2022/01/12 21:23:14;;;;;;;37.93;15.17;;;7.00;99.90;;;;;;4975339;28;20630;-87
2022/01/12 21:25:40;;;;;;;35.17;14.50;;;7.00;99.90;;;;;;4977863;28;20188;-85
2022/01/12 21:28:06;;;;;;;35.37;15.73;;;6.90;99.90;;;;;;4975322;28;20189;-87
2022/01/12 21:30:32;;;;;;;33.63;14.77;;;6.90;99.90;;;;;;4972627;28;20288;-87
2022/01/12 21:32:59;;;;;;;33.53;14.73;;;6.90;99.90;;;;;;4970552;28;20225;-89